Terminal Aerodrome Forecast
Issued by NWS Denver/Boulder, CO

Home | Current Version | Previous Version | Text Only | Print | Product List | Glossary On
Versions: 1 2 3 4 5 6 7 8 9 10 11 12 13 14 15 16 17 18 19 20 21 22 23 24 25 26 27 28 29 30 31 32 33 34 35 36 37 38
000
FTUS45 KBOU 231943 AAA
TAFDEN
TAF AMD
KDEN 231943Z 2320/2424 12009KT P6SM SCT015 OVC030
     FM232200 14008KT P6SM SCT030 BKN060
     FM240200 11009KT P6SM BKN060
     FM240700 17006KT P6SM BKN040
     FM241100 VRB05KT P6SM SCT060
     FM241500 01007KT P6SM FEW040
     FM242000 05008KT P6SM SCT040 BKN100=

USA.gov is the U.S. government's official web portal to all federal, state and local government web resources and services.